sensor_id;sensor_type;location;lat;lon;timestamp;noise_LAeq;noise_LA_min;noise_LA_max;noise_LA01;noise_LA95
60031;Laerm;45901;47.600;9.890;2023-04-08T00:02:28;40.27;37.88;41.89;;
60031;Laerm;45901;47.600;9.890;2023-04-08T00:04:55;40.31;38.21;41.96;;
60031;Laerm;45901;47.600;9.890;2023-04-08T00:07:23;40.36;38.21;42.09;;
60031;Laerm;45901;47.600;9.890;2023-04-08T00:09:54;40.35;38.32;41.96;;
60031;Laerm;45901;47.600;9.890;2023-04-08T00:12:21;40.37;38.37;41.96;;
60031;Laerm;45901;47.600;9.890;2023-04-08T00:14:49;40.31;38.32;41.82;;
60031;Laerm;45901;47.600;9.890;2023-04-08T00:17:16;40.24;38.21;41.75;;
60031;Laerm;45901;47.600;9.890;2023-04-08T00:19:45;40.25;38.05;41.96;;
60031;Laerm;45901;47.600;9.890;2023-04-08T00:22:13;40.28;37.88;41.82;;
60031;Laerm;45901;47.600;9.890;2023-04-08T00:24:40;40.39;38.21;41.96;;
60031;Laerm;45901;47.600;9.890;2023-04-08T00:27:08;40.45;38.67;42.22;;
60031;Laerm;45901;47.600;9.890;2023-04-08T00:29:35;40.45;37.88;41.96;;
60031;Laerm;45901;47.600;9.890;2023-04-08T00:32:03;40.40;38.21;42.09;;
60031;Laerm;45901;47.600;9.890;2023-04-08T00:34:30;40.29;37.88;41.96;;
60031;Laerm;45901;47.600;9.890;2023-04-08T00:36:59;40.37;38.37;41.89;;
60031;Laerm;45901;47.600;9.890;2023-04-08T00:39:26;40.37;38.52;41.96;;
60031;Laerm;45901;47.600;9.890;2023-04-08T00:41:54;40.41;38.67;42.09;;
60031;Laerm;45901;47.600;9.890;2023-04-08T00:44:22;40.45;38.37;42.16;;
60031;Laerm;45901;47.600;9.890;2023-04-08T00:46:49;40.39;38.37;41.82;;
60031;Laerm;45901;47.600;9.890;2023-04-08T00:49:17;40.37;38.21;42.22;;
60031;Laerm;45901;47.600;9.890;2023-04-08T00:51:44;40.36;37.87;41.89;;
60031;Laerm;45901;47.600;9.890;2023-04-08T00:54:13;40.42;38.37;42.29;;
60031;Laerm;45901;47.600;9.890;2023-04-08T00:56:43;40.41;38.21;41.96;;
60031;Laerm;45901;47.600;9.890;2023-04-08T00:59:11;40.46;38.37;42.16;;
60031;Laerm;45901;47.600;9.890;2023-04-08T01:01:45;40.56;38.37;43.49;;
60031;Laerm;45901;47.600;9.890;2023-04-08T01:04:23;40.45;37.70;42.35;;
60031;Laerm;45901;47.600;9.890;2023-04-08T01:07:02;40.50;38.52;42.16;;
60031;Laerm;45901;47.600;9.890;2023-04-08T01:09:38;40.56;38.52;42.09;;
60031;Laerm;45901;47.600;9.890;2023-04-08T01:12:13;40.47;38.21;42.41;;
60031;Laerm;45901;47.600;9.890;2023-04-08T01:14:45;40.44;38.21;41.89;;
60031;Laerm;45901;47.600;9.890;2023-04-08T01:17:14;40.48;38.37;42.16;;
60031;Laerm;45901;47.600;9.890;2023-04-08T01:19:45;40.51;38.52;42.03;;
60031;Laerm;45901;47.600;9.890;2023-04-08T01:22:24;40.49;38.21;42.09;;
60031;Laerm;45901;47.600;9.890;2023-04-08T01:25:01;40.49;38.52;42.03;;
60031;Laerm;45901;47.600;9.890;2023-04-08T01:27:33;40.47;38.37;41.96;;
60031;Laerm;45901;47.600;9.890;2023-04-08T01:30:03;40.46;38.52;42.35;;
60031;Laerm;45901;47.600;9.890;2023-04-08T01:32:33;40.41;38.21;41.89;;
60031;Laerm;45901;47.600;9.890;2023-04-08T01:35:02;40.49;38.21;41.96;;
60031;Laerm;45901;47.600;9.890;2023-04-08T01:37:30;40.56;38.37;41.94;;
60031;Laerm;45901;47.600;9.890;2023-04-08T01:40:00;40.46;38.21;42.03;;
60031;Laerm;45901;47.600;9.890;2023-04-08T01:42:29;40.48;38.37;42.16;;
60031;Laerm;45901;47.600;9.890;2023-04-08T01:45:00;40.51;38.52;42.16;;
60031;Laerm;45901;47.600;9.890;2023-04-08T01:47:29;40.46;38.37;41.96;;
60031;Laerm;45901;47.600;9.890;2023-04-08T01:49:57;40.51;38.52;42.16;;
60031;Laerm;45901;47.600;9.890;2023-04-08T01:52:26;40.52;38.52;41.96;;
60031;Laerm;45901;47.600;9.890;2023-04-08T01:54:55;40.53;38.52;42.41;;
60031;Laerm;45901;47.600;9.890;2023-04-08T01:57:26;40.51;38.21;42.16;;
60031;Laerm;45901;47.600;9.890;2023-04-08T02:00:08;40.60;38.21;43.04;;
60031;Laerm;45901;47.600;9.890;2023-04-08T02:02:37;40.58;38.37;42.03;;
60031;Laerm;45901;47.600;9.890;2023-04-08T02:05:05;40.54;38.21;42.09;;
60031;Laerm;45901;47.600;9.890;2023-04-08T02:07:33;40.58;38.67;42.09;;
60031;Laerm;45901;47.600;9.890;2023-04-08T02:10:01;40.51;38.52;42.19;;
60031;Laerm;45901;47.600;9.890;2023-04-08T02:12:29;40.70;38.52;42.47;;
60031;Laerm;45901;47.600;9.890;2023-04-08T02:14:56;40.67;38.95;42.29;;
60031;Laerm;45901;47.600;9.890;2023-04-08T02:17:32;40.58;38.52;42.22;;
60031;Laerm;45901;47.600;9.890;2023-04-08T02:20:05;40.60;38.67;42.16;;
60031;Laerm;45901;47.600;9.890;2023-04-08T02:22:39;40.60;38.67;42.22;;
60031;Laerm;45901;47.600;9.890;2023-04-08T02:25:12;40.55;38.52;42.22;;
60031;Laerm;45901;47.600;9.890;2023-04-08T02:27:40;40.65;38.52;42.41;;
60031;Laerm;45901;47.600;9.890;2023-04-08T02:30:11;40.66;38.67;42.22;;
60031;Laerm;45901;47.600;9.890;2023-04-08T02:32:41;40.59;38.52;42.22;;
60031;Laerm;45901;47.600;9.890;2023-04-08T02:35:12;40.60;38.67;42.16;;
60031;Laerm;45901;47.600;9.890;2023-04-08T02:37:40;40.60;38.52;42.16;;
60031;Laerm;45901;47.600;9.890;2023-04-08T02:40:26;40.55;38.52;42.41;;
60031;Laerm;45901;47.600;9.890;2023-04-08T02:42:54;40.53;38.67;42.47;;
60031;Laerm;45901;47.600;9.890;2023-04-08T02:45:23;40.51;38.52;41.89;;
60031;Laerm;45901;47.600;9.890;2023-04-08T02:47:54;40.58;38.52;42.53;;
60031;Laerm;45901;47.600;9.890;2023-04-08T02:50:22;40.63;38.37;42.47;;
60031;Laerm;45901;47.600;9.890;2023-04-08T02:52:49;40.74;38.95;42.35;;
60031;Laerm;45901;47.600;9.890;2023-04-08T02:55:17;40.62;38.67;42.24;;
60031;Laerm;45901;47.600;9.890;2023-04-08T02:57:46;40.64;38.67;42.03;;
60031;Laerm;45901;47.600;9.890;2023-04-08T03:00:14;40.76;38.95;42.98;;
60031;Laerm;45901;47.600;9.890;2023-04-08T03:02:43;40.78;39.08;42.09;;
60031;Laerm;45901;47.600;9.890;2023-04-08T03:05:13;40.88;38.81;42.65;;
60031;Laerm;45901;47.600;9.890;2023-04-08T03:07:41;40.80;38.67;46.13;;
60031;Laerm;45901;47.600;9.890;2023-04-08T03:10:09;40.69;38.37;42.06;;
60031;Laerm;45901;47.600;9.890;2023-04-08T03:12:36;40.54;38.32;42.16;;
60031;Laerm;45901;47.600;9.890;2023-04-08T03:15:05;40.50;38.67;42.35;;
60031;Laerm;45901;47.600;9.890;2023-04-08T03:17:32;40.57;38.52;42.03;;
60031;Laerm;45901;47.600;9.890;2023-04-08T03:20:00;40.49;38.21;42.42;;
60031;Laerm;45901;47.600;9.890;2023-04-08T03:22:32;40.53;38.52;42.22;;
60031;Laerm;45901;47.600;9.890;2023-04-08T03:24:59;40.47;38.52;42.03;;
60031;Laerm;45901;47.600;9.890;2023-04-08T03:27:27;40.43;38.05;41.96;;
60031;Laerm;45901;47.600;9.890;2023-04-08T03:29:54;40.42;38.37;42.06;;
60031;Laerm;45901;47.600;9.890;2023-04-08T03:32:22;40.39;37.70;42.16;;
60031;Laerm;45901;47.600;9.890;2023-04-08T03:34:50;40.38;38.37;41.75;;
60031;Laerm;45901;47.600;9.890;2023-04-08T03:37:17;40.43;38.52;41.96;;
60031;Laerm;45901;47.600;9.890;2023-04-08T03:39:46;40.47;38.37;41.96;;
60031;Laerm;45901;47.600;9.890;2023-04-08T03:42:13;40.57;38.67;42.29;;
60031;Laerm;45901;47.600;9.890;2023-04-08T03:44:40;40.61;38.67;42.29;;
60031;Laerm;45901;47.600;9.890;2023-04-08T03:47:08;40.69;38.37;42.16;;
60031;Laerm;45901;47.600;9.890;2023-04-08T03:49:35;40.71;38.52;42.41;;
60031;Laerm;45901;47.600;9.890;2023-04-08T03:52:03;40.39;38.05;42.00;;
60031;Laerm;45901;47.600;9.890;2023-04-08T03:54:30;40.53;38.67;42.41;;
60031;Laerm;45901;47.600;9.890;2023-04-08T03:56:59;40.35;38.37;41.89;;
60031;Laerm;45901;47.600;9.890;2023-04-08T03:59:26;40.40;38.37;43.19;;
60031;Laerm;45901;47.600;9.890;2023-04-08T04:01:54;40.33;38.21;42.09;;
60031;Laerm;45901;47.600;9.890;2023-04-08T04:04:22;40.27;38.05;41.96;;
60031;Laerm;45901;47.600;9.890;2023-04-08T04:06:50;40.29;38.21;42.03;;
60031;Laerm;45901;47.600;9.890;2023-04-08T04:09:17;40.30;38.21;42.35;;
60031;Laerm;45901;47.600;9.890;2023-04-08T04:11:44;40.38;38.37;43.49;;
60031;Laerm;45901;47.600;9.890;2023-04-08T04:14:13;40.46;38.37;42.95;;
60031;Laerm;45901;47.600;9.890;2023-04-08T04:16:40;40.41;38.37;43.54;;
60031;Laerm;45901;47.600;9.890;2023-04-08T04:19:08;40.39;38.37;43.44;;
60031;Laerm;45901;47.600;9.890;2023-04-08T04:21:35;40.39;38.37;43.54;;
60031;Laerm;45901;47.600;9.890;2023-04-08T04:24:03;40.37;38.05;43.58;;
60031;Laerm;45901;47.600;9.890;2023-04-08T04:26:31;40.49;38.37;45.57;;
60031;Laerm;45901;47.600;9.890;2023-04-08T04:28:58;40.32;38.37;43.77;;
60031;Laerm;45901;47.600;9.890;2023-04-08T04:31:27;40.29;38.21;44.03;;
60031;Laerm;45901;47.600;9.890;2023-04-08T04:33:54;40.22;38.37;41.53;;
60031;Laerm;45901;47.600;9.890;2023-04-08T04:36:21;40.23;38.21;42.09;;
60031;Laerm;45901;47.600;9.890;2023-04-08T04:38:49;40.48;38.67;44.87;;
60031;Laerm;45901;47.600;9.890;2023-04-08T04:41:16;40.48;38.21;48.69;;
60031;Laerm;45901;47.600;9.890;2023-04-08T04:43:44;40.23;38.37;41.68;;
60031;Laerm;45901;47.600;9.890;2023-04-08T04:46:12;40.24;38.05;42.09;;
60031;Laerm;45901;47.600;9.890;2023-04-08T04:48:41;40.32;38.21;41.96;;
60031;Laerm;45901;47.600;9.890;2023-04-08T04:51:08;40.47;38.52;42.82;;
60031;Laerm;45901;47.600;9.890;2023-04-08T04:53:35;40.45;38.67;43.19;;
60031;Laerm;45901;47.600;9.890;2023-04-08T04:56:03;40.42;38.21;42.29;;
60031;Laerm;45901;47.600;9.890;2023-04-08T04:58:30;40.91;38.67;45.45;;
60031;Laerm;45901;47.600;9.890;2023-04-08T05:00:58;40.93;38.74;44.15;;
60031;Laerm;45901;47.600;9.890;2023-04-08T05:03:25;40.59;38.67;43.39;;
60031;Laerm;45901;47.600;9.890;2023-04-08T05:05:54;40.56;38.37;44.47;;
60031;Laerm;45901;47.600;9.890;2023-04-08T05:08:22;40.58;38.52;42.59;;
60031;Laerm;45901;47.600;9.890;2023-04-08T05:10:49;40.70;38.81;44.31;;
60031;Laerm;45901;47.600;9.890;2023-04-08T05:13:17;41.17;38.74;45.57;;
60031;Laerm;45901;47.600;9.890;2023-04-08T05:15:44;41.07;38.95;44.69;;
60031;Laerm;45901;47.600;9.890;2023-04-08T05:18:11;41.41;39.21;45.39;;
60031;Laerm;45901;47.600;9.890;2023-04-08T05:20:39;41.40;39.34;46.89;;
60031;Laerm;45901;47.600;9.890;2023-04-08T05:23:08;41.28;39.21;45.60;;
60031;Laerm;45901;47.600;9.890;2023-04-08T05:25:35;41.04;39.21;45.17;;
60031;Laerm;45901;47.600;9.890;2023-04-08T05:28:03;40.85;38.67;49.63;;
60031;Laerm;45901;47.600;9.890;2023-04-08T05:30:30;40.88;38.52;44.19;;
60031;Laerm;45901;47.600;9.890;2023-04-08T05:32:58;41.45;39.08;46.52;;
60031;Laerm;45901;47.600;9.890;2023-04-08T05:35:26;41.76;39.08;49.32;;
60031;Laerm;45901;47.600;9.890;2023-04-08T05:37:53;41.48;39.08;45.91;;
60031;Laerm;45901;47.600;9.890;2023-04-08T05:40:22;41.56;39.21;46.73;;
60031;Laerm;45901;47.600;9.890;2023-04-08T05:42:50;41.05;38.95;46.84;;
60031;Laerm;45901;47.600;9.890;2023-04-08T05:45:17;40.77;38.81;43.19;;
60031;Laerm;45901;47.600;9.890;2023-04-08T05:47:44;40.52;38.21;45.89;;
60031;Laerm;45901;47.600;9.890;2023-04-08T05:50:12;40.49;38.37;47.06;;
60031;Laerm;45901;47.600;9.890;2023-04-08T05:52:42;40.40;38.47;43.24;;
60031;Laerm;45901;47.600;9.890;2023-04-08T05:55:10;40.32;38.37;43.09;;
60031;Laerm;45901;47.600;9.890;2023-04-08T05:57:40;40.25;38.37;45.07;;
60031;Laerm;45901;47.600;9.890;2023-04-08T06:00:09;40.55;38.21;44.97;;
60031;Laerm;45901;47.600;9.890;2023-04-08T06:02:37;40.41;38.21;42.65;;
60031;Laerm;45901;47.600;9.890;2023-04-08T06:05:05;40.24;38.05;47.65;;
60031;Laerm;45901;47.600;9.890;2023-04-08T06:07:33;40.24;37.52;42.09;;
60031;Laerm;45901;47.600;9.890;2023-04-08T06:10:00;40.31;38.05;42.65;;
60031;Laerm;45901;47.600;9.890;2023-04-08T06:12:28;40.40;38.37;42.16;;
60031;Laerm;45901;47.600;9.890;2023-04-08T06:14:57;40.42;38.37;42.03;;
60031;Laerm;45901;47.600;9.890;2023-04-08T06:17:25;40.34;38.21;42.03;;
60031;Laerm;45901;47.600;9.890;2023-04-08T06:19:52;40.35;37.88;41.96;;
60031;Laerm;45901;47.600;9.890;2023-04-08T06:22:19;40.43;38.37;41.96;;
60031;Laerm;45901;47.600;9.890;2023-04-08T06:24:47;40.54;38.67;42.09;;
60031;Laerm;45901;47.600;9.890;2023-04-08T06:27:15;40.67;38.52;42.22;;
60031;Laerm;45901;47.600;9.890;2023-04-08T06:29:42;40.69;38.81;42.47;;
60031;Laerm;45901;47.600;9.890;2023-04-08T06:32:11;40.65;38.67;42.35;;
60031;Laerm;45901;47.600;9.890;2023-04-08T06:34:38;40.83;38.52;46.48;;
60031;Laerm;45901;47.600;9.890;2023-04-08T06:37:06;40.73;38.81;42.16;;
60031;Laerm;45901;47.600;9.890;2023-04-08T06:39:33;40.77;38.67;42.53;;
60031;Laerm;45901;47.600;9.890;2023-04-08T06:42:01;40.75;38.81;42.09;;
60031;Laerm;45901;47.600;9.890;2023-04-08T06:44:28;40.88;38.81;57.31;;
60031;Laerm;45901;47.600;9.890;2023-04-08T06:46:56;41.37;39.34;50.22;;
60031;Laerm;45901;47.600;9.890;2023-04-08T06:49:25;42.08;39.08;49.72;;
60031;Laerm;45901;47.600;9.890;2023-04-08T06:51:53;40.92;38.37;42.53;;
60031;Laerm;45901;47.600;9.890;2023-04-08T06:54:20;40.83;38.95;42.35;;
60031;Laerm;45901;47.600;9.890;2023-04-08T06:56:47;40.92;38.52;42.53;;
60031;Laerm;45901;47.600;9.890;2023-04-08T06:59:15;40.79;38.32;43.81;;
60031;Laerm;45901;47.600;9.890;2023-04-08T07:01:42;40.98;39.08;43.77;;
60031;Laerm;45901;47.600;9.890;2023-04-08T07:04:10;40.98;38.95;42.74;;
60031;Laerm;45901;47.600;9.890;2023-04-08T07:06:39;41.09;39.08;52.65;;
60031;Laerm;45901;47.600;9.890;2023-04-08T07:09:06;40.93;39.08;49.75;;
60031;Laerm;45901;47.600;9.890;2023-04-08T07:11:34;40.83;38.67;43.14;;
60031;Laerm;45901;47.600;9.890;2023-04-08T07:14:01;40.89;38.81;42.47;;
60031;Laerm;45901;47.600;9.890;2023-04-08T07:16:29;41.02;38.81;44.87;;
60031;Laerm;45901;47.600;9.890;2023-04-08T07:18:56;41.15;38.81;43.14;;
60031;Laerm;45901;47.600;9.890;2023-04-08T07:21:24;41.06;38.81;43.04;;
60031;Laerm;45901;47.600;9.890;2023-04-08T07:23:53;41.24;38.52;43.24;;
60031;Laerm;45901;47.600;9.890;2023-04-08T07:26:21;40.89;39.08;42.53;;
60031;Laerm;45901;47.600;9.890;2023-04-08T07:28:48;40.73;38.95;42.41;;
60031;Laerm;45901;47.600;9.890;2023-04-08T07:31:17;40.63;38.60;42.41;;
60031;Laerm;45901;47.600;9.890;2023-04-08T07:33:45;40.65;38.52;42.16;;
60031;Laerm;45901;47.600;9.890;2023-04-08T07:36:13;40.62;38.67;42.09;;
60031;Laerm;45901;47.600;9.890;2023-04-08T07:38:43;40.59;38.81;42.59;;
60031;Laerm;45901;47.600;9.890;2023-04-08T07:41:12;40.69;38.67;42.35;;
60031;Laerm;45901;47.600;9.890;2023-04-08T07:43:39;40.68;38.37;42.47;;
60031;Laerm;45901;47.600;9.890;2023-04-08T07:46:07;40.52;38.37;42.53;;
60031;Laerm;45901;47.600;9.890;2023-04-08T07:48:34;40.45;38.52;41.82;;
60031;Laerm;45901;47.600;9.890;2023-04-08T07:51:06;40.48;38.37;42.03;;
60031;Laerm;45901;47.600;9.890;2023-04-08T07:53:35;40.47;38.67;42.71;;
60031;Laerm;45901;47.600;9.890;2023-04-08T07:56:02;40.56;38.52;42.09;;
60031;Laerm;45901;47.600;9.890;2023-04-08T07:58:31;40.52;38.05;42.03;;
60031;Laerm;45901;47.600;9.890;2023-04-08T08:00:59;40.57;38.21;42.88;;
60031;Laerm;45901;47.600;9.890;2023-04-08T08:03:27;40.47;38.37;43.72;;
60031;Laerm;45901;47.600;9.890;2023-04-08T08:05:54;40.41;38.05;42.16;;
60031;Laerm;45901;47.600;9.890;2023-04-08T08:08:22;40.41;38.52;42.29;;
60031;Laerm;45901;47.600;9.890;2023-04-08T08:10:49;40.42;38.21;42.22;;
60031;Laerm;45901;47.600;9.890;2023-04-08T08:13:17;40.35;38.21;41.82;;
60031;Laerm;45901;47.600;9.890;2023-04-08T08:15:51;40.46;38.37;57.35;;
60031;Laerm;45901;47.600;9.890;2023-04-08T08:18:19;40.40;38.37;53.10;;
60031;Laerm;45901;47.600;9.890;2023-04-08T08:20:46;40.34;38.21;43.54;;
60031;Laerm;45901;47.600;9.890;2023-04-08T08:23:14;40.34;38.21;41.96;;
60031;Laerm;45901;47.600;9.890;2023-04-08T08:25:41;40.59;38.67;42.35;;
60031;Laerm;45901;47.600;9.890;2023-04-08T08:28:09;40.41;38.21;43.68;;
60031;Laerm;45901;47.600;9.890;2023-04-08T08:30:36;40.40;38.21;42.13;;
60031;Laerm;45901;47.600;9.890;2023-04-08T08:33:05;40.49;38.37;43.63;;
60031;Laerm;45901;47.600;9.890;2023-04-08T08:35:33;40.53;38.52;45.07;;
60031;Laerm;45901;47.600;9.890;2023-04-08T08:38:00;40.51;38.52;42.22;;
60031;Laerm;45901;47.600;9.890;2023-04-08T08:40:28;40.55;38.67;42.09;;
60031;Laerm;45901;47.600;9.890;2023-04-08T08:42:55;40.51;38.37;42.22;;
60031;Laerm;45901;47.600;9.890;2023-04-08T08:45:24;40.79;38.81;42.47;;
60031;Laerm;45901;47.600;9.890;2023-04-08T08:47:51;40.75;38.81;46.02;;
60031;Laerm;45901;47.600;9.890;2023-04-08T08:50:20;40.56;38.67;42.03;;
60031;Laerm;45901;47.600;9.890;2023-04-08T08:52:48;40.42;38.05;42.09;;
60031;Laerm;45901;47.600;9.890;2023-04-08T08:55:17;40.54;38.37;42.59;;
60031;Laerm;45901;47.600;9.890;2023-04-08T08:57:45;40.44;38.52;42.71;;
60031;Laerm;45901;47.600;9.890;2023-04-08T09:00:14;40.55;38.52;43.63;;
60031;Laerm;45901;47.600;9.890;2023-04-08T09:02:43;40.50;38.67;42.16;;
60031;Laerm;45901;47.600;9.890;2023-04-08T09:05:11;40.53;38.52;44.11;;
60031;Laerm;45901;47.600;9.890;2023-04-08T09:07:40;40.49;38.52;43.34;;
60031;Laerm;45901;47.600;9.890;2023-04-08T09:10:08;40.48;38.52;42.29;;
60031;Laerm;45901;47.600;9.890;2023-04-08T09:12:53;40.64;38.37;43.63;;
60031;Laerm;45901;47.600;9.890;2023-04-08T09:15:21;40.55;38.52;42.22;;
60031;Laerm;45901;47.600;9.890;2023-04-08T09:17:49;40.61;38.52;42.47;;
60031;Laerm;45901;47.600;9.890;2023-04-08T09:20:17;40.57;38.37;45.17;;
60031;Laerm;45901;47.600;9.890;2023-04-08T09:23:01;40.58;38.52;52.67;;
60031;Laerm;45901;47.600;9.890;2023-04-08T09:25:30;40.47;38.05;42.09;;
60031;Laerm;45901;47.600;9.890;2023-04-08T09:27:58;40.49;38.67;43.44;;
60031;Laerm;45901;47.600;9.890;2023-04-08T09:30:27;40.61;38.37;51.40;;
60031;Laerm;45901;47.600;9.890;2023-04-08T09:32:57;40.58;38.37;44.62;;
60031;Laerm;45901;47.600;9.890;2023-04-08T09:35:26;41.12;39.08;42.76;;
60031;Laerm;45901;47.600;9.890;2023-04-08T09:37:53;40.83;38.81;42.76;;
60031;Laerm;45901;47.600;9.890;2023-04-08T09:40:23;40.58;38.05;44.11;;
60031;Laerm;45901;47.600;9.890;2023-04-08T09:42:53;40.70;38.67;54.30;;
60031;Laerm;45901;47.600;9.890;2023-04-08T09:45:21;40.62;38.37;43.04;;
60031;Laerm;45901;47.600;9.890;2023-04-08T09:47:56;40.59;38.67;45.75;;
60031;Laerm;45901;47.600;9.890;2023-04-08T09:50:31;40.50;38.52;44.39;;
60031;Laerm;45901;47.600;9.890;2023-04-08T09:53:07;40.50;38.52;47.90;;
60031;Laerm;45901;47.600;9.890;2023-04-08T09:55:37;40.31;38.21;42.13;;
60031;Laerm;45901;47.600;9.890;2023-04-08T09:58:15;40.31;38.21;41.82;;
60031;Laerm;45901;47.600;9.890;2023-04-08T10:00:48;40.46;37.88;43.49;;
60031;Laerm;45901;47.600;9.890;2023-04-08T10:03:26;40.33;38.05;43.39;;
60031;Laerm;45901;47.600;9.890;2023-04-08T10:05:56;40.32;38.37;41.96;;
60031;Laerm;45901;47.600;9.890;2023-04-08T10:08:25;40.34;37.88;44.94;;
60031;Laerm;45901;47.600;9.890;2023-04-08T10:10:55;40.43;38.52;42.53;;
60031;Laerm;45901;47.600;9.890;2023-04-08T10:13:23;40.37;38.37;42.93;;
60031;Laerm;45901;47.600;9.890;2023-04-08T10:16:19;40.34;38.37;45.83;;
60031;Laerm;45901;47.600;9.890;2023-04-08T10:18:47;40.30;37.88;42.09;;
60031;Laerm;45901;47.600;9.890;2023-04-08T10:21:37;40.32;37.70;43.90;;
60031;Laerm;45901;47.600;9.890;2023-04-08T10:24:08;40.29;38.21;43.34;;
60031;Laerm;45901;47.600;9.890;2023-04-08T10:26:42;40.30;38.21;42.76;;
60031;Laerm;45901;47.600;9.890;2023-04-08T10:29:32;40.35;38.52;42.35;;
60031;Laerm;45901;47.600;9.890;2023-04-08T10:31:59;40.39;38.21;41.82;;
60031;Laerm;45901;47.600;9.890;2023-04-08T10:34:28;40.46;38.37;45.59;;
60031;Laerm;45901;47.600;9.890;2023-04-08T10:36:56;40.47;38.05;42.65;;
60031;Laerm;45901;47.600;9.890;2023-04-08T10:39:27;40.45;38.37;42.47;;
60031;Laerm;45901;47.600;9.890;2023-04-08T10:41:55;40.47;38.52;42.47;;
60031;Laerm;45901;47.600;9.890;2023-04-08T10:44:24;40.47;38.37;42.16;;
60031;Laerm;45901;47.600;9.890;2023-04-08T10:46:53;40.70;38.21;45.80;;
60031;Laerm;45901;47.600;9.890;2023-04-08T10:49:21;40.49;38.37;42.22;;
60031;Laerm;45901;47.600;9.890;2023-04-08T10:51:49;40.40;38.21;42.09;;
60031;Laerm;45901;47.600;9.890;2023-04-08T10:54:17;40.45;38.52;46.05;;
60031;Laerm;45901;47.600;9.890;2023-04-08T10:56:46;40.48;38.52;45.57;;
60031;Laerm;45901;47.600;9.890;2023-04-08T10:59:26;40.37;38.52;44.76;;
60031;Laerm;45901;47.600;9.890;2023-04-08T11:01:54;40.40;38.37;44.11;;
60031;Laerm;45901;47.600;9.890;2023-04-08T11:04:22;40.37;38.21;42.03;;
60031;Laerm;45901;47.600;9.890;2023-04-08T11:06:49;40.35;38.21;42.41;;
60031;Laerm;45901;47.600;9.890;2023-04-08T11:09:17;40.31;38.37;43.72;;
60031;Laerm;45901;47.600;9.890;2023-04-08T11:11:45;40.29;37.88;41.96;;
60031;Laerm;45901;47.600;9.890;2023-04-08T11:14:13;40.32;38.21;43.90;;
60031;Laerm;45901;47.600;9.890;2023-04-08T11:16:44;40.32;37.88;41.89;;
60031;Laerm;45901;47.600;9.890;2023-04-08T11:19:13;40.30;38.21;42.53;;
60031;Laerm;45901;47.600;9.890;2023-04-08T11:21:49;40.36;38.37;42.16;;
60031;Laerm;45901;47.600;9.890;2023-04-08T11:24:24;40.38;37.88;42.09;;
60031;Laerm;45901;47.600;9.890;2023-04-08T11:26:52;40.30;37.88;42.29;;
60031;Laerm;45901;47.600;9.890;2023-04-08T11:29:20;40.65;38.37;47.14;;
60031;Laerm;45901;47.600;9.890;2023-04-08T11:31:49;40.45;38.67;42.03;;
60031;Laerm;45901;47.600;9.890;2023-04-08T11:34:22;40.68;38.52;44.23;;
60031;Laerm;45901;47.600;9.890;2023-04-08T11:36:50;40.78;38.67;45.69;;
60031;Laerm;45901;47.600;9.890;2023-04-08T11:39:17;40.39;38.37;41.96;;
60031;Laerm;45901;47.600;9.890;2023-04-08T11:41:48;40.39;38.05;44.03;;
60031;Laerm;45901;47.600;9.890;2023-04-08T11:44:15;40.25;38.37;42.03;;
60031;Laerm;45901;47.600;9.890;2023-04-08T11:46:52;40.37;38.21;43.24;;
60031;Laerm;45901;47.600;9.890;2023-04-08T11:49:22;40.27;38.37;42.59;;
60031;Laerm;45901;47.600;9.890;2023-04-08T11:51:57;40.31;38.37;43.49;;
60031;Laerm;45901;47.600;9.890;2023-04-08T11:54:29;40.56;38.37;45.33;;
60031;Laerm;45901;47.600;9.890;2023-04-08T11:56:57;40.44;38.21;43.54;;
60031;Laerm;45901;47.600;9.890;2023-04-08T11:59:26;40.79;38.67;43.81;;
60031;Laerm;45901;47.600;9.890;2023-04-08T12:01:54;40.37;38.67;42.65;;
60031;Laerm;45901;47.600;9.890;2023-04-08T12:04:22;40.45;38.52;44.31;;
60031;Laerm;45901;47.600;9.890;2023-04-08T12:06:49;40.29;38.60;42.03;;
60031;Laerm;45901;47.600;9.890;2023-04-08T12:09:17;40.48;38.52;44.58;;
60031;Laerm;45901;47.600;9.890;2023-04-08T12:11:44;40.51;38.67;46.82;;
60031;Laerm;45901;47.600;9.890;2023-04-08T12:14:12;40.43;38.67;45.20;;
60031;Laerm;45901;47.600;9.890;2023-04-08T12:16:39;40.55;38.37;43.49;;
60031;Laerm;45901;47.600;9.890;2023-04-08T12:19:08;40.56;38.52;43.90;;
60031;Laerm;45901;47.600;9.890;2023-04-08T12:21:35;40.37;38.05;44.58;;
60031;Laerm;45901;47.600;9.890;2023-04-08T12:24:03;40.58;38.67;44.58;;
60031;Laerm;45901;47.600;9.890;2023-04-08T12:26:30;40.40;38.37;43.54;;
60031;Laerm;45901;47.600;9.890;2023-04-08T12:28:58;40.35;38.52;43.14;;
60031;Laerm;45901;47.600;9.890;2023-04-08T12:31:25;40.32;38.21;44.19;;
60031;Laerm;45901;47.600;9.890;2023-04-08T12:33:53;40.26;38.05;42.22;;
60031;Laerm;45901;47.600;9.890;2023-04-08T12:36:22;40.22;38.21;43.34;;
60031;Laerm;45901;47.600;9.890;2023-04-08T12:38:49;40.27;38.52;42.59;;
60031;Laerm;45901;47.600;9.890;2023-04-08T12:41:17;40.29;38.47;43.04;;
60031;Laerm;45901;47.600;9.890;2023-04-08T12:43:44;40.30;38.52;48.70;;
60031;Laerm;45901;47.600;9.890;2023-04-08T12:46:12;40.24;38.67;41.96;;
60031;Laerm;45901;47.600;9.890;2023-04-08T12:48:39;40.19;38.37;42.35;;
60031;Laerm;45901;47.600;9.890;2023-04-08T12:51:06;40.24;38.21;44.94;;
60031;Laerm;45901;47.600;9.890;2023-04-08T12:53:36;40.32;38.52;43.58;;
60031;Laerm;45901;47.600;9.890;2023-04-08T12:56:05;40.34;37.88;43.09;;
60031;Laerm;45901;47.600;9.890;2023-04-08T12:58:32;40.41;37.88;42.16;;
60031;Laerm;45901;47.600;9.890;2023-04-08T13:01:00;40.72;38.67;43.49;;
60031;Laerm;45901;47.600;9.890;2023-04-08T13:03:27;40.53;38.67;44.87;;
60031;Laerm;45901;47.600;9.890;2023-04-08T13:05:56;40.47;38.37;42.65;;
60031;Laerm;45901;47.600;9.890;2023-04-08T13:08:24;40.51;38.52;42.35;;
60031;Laerm;45901;47.600;9.890;2023-04-08T13:10:53;40.64;38.81;43.09;;
60031;Laerm;45901;47.600;9.890;2023-04-08T13:13:21;40.41;38.52;41.89;;
60031;Laerm;45901;47.600;9.890;2023-04-08T13:15:48;40.67;38.37;43.19;;
60031;Laerm;45901;47.600;9.890;2023-04-08T13:18:15;40.84;38.52;44.69;;
60031;Laerm;45901;47.600;9.890;2023-04-08T13:20:43;40.36;38.52;42.71;;
60031;Laerm;45901;47.600;9.890;2023-04-08T13:23:11;40.22;38.37;43.04;;
60031;Laerm;45901;47.600;9.890;2023-04-08T13:25:40;40.21;38.37;42.35;;
60031;Laerm;45901;47.600;9.890;2023-04-08T13:28:09;40.19;38.21;41.68;;
60031;Laerm;45901;47.600;9.890;2023-04-08T13:30:37;40.19;38.21;41.88;;
60031;Laerm;45901;47.600;9.890;2023-04-08T13:33:04;40.32;38.21;46.13;;
60031;Laerm;45901;47.600;9.890;2023-04-08T13:35:31;40.20;38.37;43.77;;
60031;Laerm;45901;47.600;9.890;2023-04-08T13:37:59;40.15;37.88;42.41;;
60031;Laerm;45901;47.600;9.890;2023-04-08T13:40:29;40.19;38.52;42.16;;
60031;Laerm;45901;47.600;9.890;2023-04-08T13:42:56;40.25;38.05;43.90;;
60031;Laerm;45901;47.600;9.890;2023-04-08T13:45:25;40.23;38.37;42.71;;
60031;Laerm;45901;47.600;9.890;2023-04-08T13:47:53;40.17;38.21;41.53;;
60031;Laerm;45901;47.600;9.890;2023-04-08T13:50:22;40.27;37.88;43.63;;
60031;Laerm;45901;47.600;9.890;2023-04-08T13:52:49;40.21;38.21;42.22;;
60031;Laerm;45901;47.600;9.890;2023-04-08T13:55:17;40.23;38.37;43.39;;